Aérodrome :
LOGIN :

S'inscrire | Disclaimer

   EN    FR    IT 

 










Légende :    VFR   VFR Marginal   IFR   IFR Intensif   IFR Très Intensif
Visi : 
Plafond : 
>= 8 km
>= 3000ft
5 à 8 km
1000 à 3000 ft
1500m à 5 km
500 à 1000 ft
800 à 1500m
200 à 500 ft
< 800m
< 200 ft
Symboles :   Orages  Brouillard  Fortes neiges  Fortes précipitations  Vent > 20 kt
SIGMETs :   Divers  Orages  Givrage  Turbulence  Onde Orograph.  Cendres Volcan.







- Altitude de l'aérodrome : 276 ft
- Code IATA : RBA


GMME - Rabat

DERNIER METAR :
  • 230600Z 15005KT 090V200 6000 FEW006 SCT100 BKN200 12/05 Q1027 NOSIG

METARs EXPIRÉS :
  • 230530Z 15004KT 090V190 6000 FEW006 SCT100 BKN200 11/06 Q1026 NOSIG
  • 230500Z 14003KT 090V190 6000 FEW006 SCT100 BKN200 12/06 Q1026 NOSIG
  • 230430Z 14004KT 080V210 6000 FEW006 SCT100 BKN200 12/06 Q1026 NOSIG
  • 230400Z 15005KT 090V200 6000 FEW006 SCT100 BKN200 13/07 Q1026 NOSIG
  • 230330Z 15004KT 100V190 6000 FEW006 SCT100 BKN200 12/07 Q1026 NOSIG

TAF TAF GMME
Valide du 23 à 06h jusqu'au 24 à 12h UTC


230500Z 2306/2412 32008KT 6000 SCT016 SCT200
BECMG 2318/2320 VRB02KT
PROB40
TEMPO 2400/2406 3000 SCT008 BR
BECMG 2409/2411 30010KT
Pas de NOTAMs connus pour ce terrain.



MET'MAP, la Météo Aéronautique d'un coup d'oeil ! - Copyright ORBIFLY Décembre 2007 - Disclaimer

ORBIFLY MET'MAP TEAM :

Programmation & Développement : Alexandra Zaïnal
Conception & Développement : Baudouin d'Aumeries
Co-Programmation & Développement : Marc-Olivier Méhu
Soutien technique & logistique : Manuel Goepfert

Contact : metmap@orbifly.com




SOURCES & CREDITS :

   NOAA